Time;durP1;ratioP1;P1;durP2;ratioP2;P2;SDS_P1;SDS_P2;PMS_P1;PMS_P2;Temp;Humidity;BMP_temperature;BMP_pressure;BME280_temperature;BME280_humidity;BME280_pressure;Samples;Min_cycle;Max_cycle;Signal;HPM_P1;HPM_P2
2021/08/25 00:02:11;;;;;;;12.68;11.48;;;14.90;99.90;;;;;;5012400;28;20044;-76
2021/08/25 00:04:38;;;;;;;16.88;11.68;;;14.80;99.90;;;;;;5012362;28;20049;-76
2021/08/25 00:07:07;;;;;;;16.77;11.90;;;14.80;99.90;;;;;;5011717;28;20030;-76
2021/08/25 00:09:33;;;;;;;14.07;12.60;;;14.80;99.90;;;;;;5012364;28;20026;-77
2021/08/25 00:11:59;;;;;;;13.90;12.50;;;14.80;99.90;;;;;;5011661;28;20406;-76
2021/08/25 00:14:24;;;;;;;18.05;12.95;;;14.80;99.90;;;;;;5011631;28;20026;-77
2021/08/25 00:16:50;;;;;;;16.40;12.00;;;14.80;99.90;;;;;;5012165;28;20088;-74
2021/08/25 00:19:16;;;;;;;16.65;12.40;;;14.70;99.90;;;;;;5011791;28;20451;-76
2021/08/25 00:21:41;;;;;;;14.30;12.80;;;14.70;99.90;;;;;;5011994;28;20042;-76
2021/08/25 00:24:07;;;;;;;16.52;13.45;;;14.70;99.90;;;;;;5012372;28;20088;-77
2021/08/25 00:26:32;;;;;;;15.35;13.85;;;14.70;99.90;;;;;;5004415;28;20022;-75
2021/08/25 00:28:58;;;;;;;17.05;14.00;;;14.70;99.90;;;;;;5012015;28;20101;-78
2021/08/25 00:31:23;;;;;;;17.27;14.63;;;14.60;99.90;;;;;;5012903;28;20408;-76
2021/08/25 00:33:49;;;;;;;22.55;14.70;;;14.60;99.90;;;;;;5013180;28;20033;-77
2021/08/25 00:36:14;;;;;;;20.60;16.73;;;14.60;99.90;;;;;;5013714;28;20025;-75
2021/08/25 00:38:40;;;;;;;21.60;15.82;;;14.60;99.90;;;;;;5012036;28;20025;-77
2021/08/25 00:41:06;;;;;;;20.73;16.17;;;14.50;99.90;;;;;;5011520;28;20034;-76
2021/08/25 00:43:31;;;;;;;20.38;16.85;;;14.50;99.90;;;;;;5012938;28;20025;-76
2021/08/25 00:45:57;;;;;;;20.30;16.85;;;14.50;99.90;;;;;;5012540;28;20026;-76
2021/08/25 00:48:22;;;;;;;18.25;16.23;;;14.50;99.90;;;;;;5012080;28;20161;-77
2021/08/25 00:50:54;;;;;;;20.92;16.25;;;14.40;99.90;;;;;;5012106;28;20041;-78
2021/08/25 00:53:22;;;;;;;19.13;17.13;;;14.40;99.90;;;;;;5011885;28;20045;-76
2021/08/25 00:55:49;;;;;;;18.67;16.40;;;14.40;99.90;;;;;;5011003;28;20014;-77
2021/08/25 00:58:14;;;;;;;20.75;17.15;;;14.40;99.90;;;;;;5011786;28;20030;-77
2021/08/25 01:01:04;;;;;;;23.98;17.92;;;14.40;99.90;;;;;;5011235;28;20153;-76
2021/08/25 01:03:49;;;;;;;25.90;17.92;;;14.40;99.90;;;;;;5010923;28;20496;-77
2021/08/25 01:06:21;;;;;;;21.58;16.90;;;14.40;99.90;;;;;;5011767;28;20017;-77
2021/08/25 01:08:46;;;;;;;25.50;17.15;;;14.40;99.90;;;;;;5010844;28;20040;-77
2021/08/25 01:11:12;;;;;;;22.02;15.90;;;14.30;99.90;;;;;;5011749;28;20022;-77
2021/08/25 01:13:38;;;;;;;24.45;18.13;;;14.30;99.90;;;;;;5011731;28;20113;-76
2021/08/25 01:16:04;;;;;;;20.35;16.92;;;14.30;99.90;;;;;;5011044;28;20109;-77
2021/08/25 01:18:30;;;;;;;24.98;17.20;;;14.30;99.90;;;;;;5011522;28;20030;-77
2021/08/25 01:20:59;;;;;;;19.02;16.08;;;14.30;99.90;;;;;;5011818;28;20113;-75
2021/08/25 01:23:25;;;;;;;18.98;16.98;;;14.30;99.90;;;;;;5012060;28;20030;-76
2021/08/25 01:25:56;;;;;;;19.70;16.58;;;14.30;99.90;;;;;;5015196;28;20026;-77
2021/08/25 01:28:26;;;;;;;27.80;16.90;;;14.30;99.90;;;;;;5015540;28;20022;-77
2021/08/25 01:30:52;;;;;;;20.58;17.52;;;14.20;99.90;;;;;;5014991;28;20033;-75
2021/08/25 01:33:27;;;;;;;20.52;18.33;;;14.20;99.90;;;;;;5015228;28;20097;-75
2021/08/25 01:35:52;;;;;;;20.63;17.55;;;14.20;99.90;;;;;;5014490;28;20037;-75
2021/08/25 01:38:55;;;;;;;25.52;19.05;;;14.20;99.90;;;;;;5013769;28;20022;-75
2021/08/25 01:41:22;;;;;;;19.58;17.50;;;14.20;99.90;;;;;;5014427;28;20044;-77
2021/08/25 01:44:02;;;;;;;21.48;18.67;;;14.20;99.90;;;;;;5013230;28;20026;-76
2021/08/25 01:46:39;;;;;;;24.85;19.25;;;14.10;99.90;;;;;;5014611;28;20344;-75
2021/08/25 01:49:07;;;;;;;28.98;20.38;;;14.10;99.90;;;;;;5014296;28;20493;-75
2021/08/25 01:51:33;;;;;;;25.73;19.63;;;14.10;99.90;;;;;;5013397;28;20084;-76
2021/08/25 01:54:00;;;;;;;25.92;19.73;;;14.10;99.90;;;;;;5013849;28;20030;-75
2021/08/25 01:56:26;;;;;;;26.85;20.23;;;14.10;99.90;;;;;;5014409;28;20065;-77
2021/08/25 01:58:53;;;;;;;26.98;20.60;;;14.10;99.90;;;;;;5013093;28;20017;-75
2021/08/25 02:01:19;;;;;;;26.10;21.33;;;14.10;99.90;;;;;;5013623;28;20096;-76
2021/08/25 02:03:44;;;;;;;24.52;19.05;;;14.00;99.90;;;;;;5013338;28;20351;-75
2021/08/25 02:06:10;;;;;;;29.02;20.05;;;14.10;99.90;;;;;;5013889;28;20036;-77
2021/08/25 02:08:36;;;;;;;25.55;20.55;;;14.00;99.90;;;;;;5014208;28;20022;-76
2021/08/25 02:11:01;;;;;;;24.17;19.88;;;14.00;99.90;;;;;;5014341;28;20018;-76
2021/08/25 02:13:27;;;;;;;28.35;20.92;;;14.00;99.90;;;;;;5013283;28;20121;-75
2021/08/25 02:15:53;;;;;;;26.02;20.77;;;14.00;99.90;;;;;;5014320;28;20024;-75
2021/08/25 02:18:19;;;;;;;31.73;21.08;;;14.00;99.90;;;;;;5014383;28;20034;-76
2021/08/25 02:20:45;;;;;;;27.75;22.08;;;14.00;99.90;;;;;;5013290;28;20543;-76
2021/08/25 02:23:10;;;;;;;24.77;21.52;;;13.90;99.90;;;;;;5014370;28;20030;-76
2021/08/25 02:25:36;;;;;;;26.70;22.30;;;14.00;99.90;;;;;;5013850;28;20165;-76
2021/08/25 02:28:02;;;;;;;29.85;22.88;;;14.00;99.90;;;;;;5013006;28;20014;-76
2021/08/25 02:30:27;;;;;;;26.42;21.45;;;14.00;99.90;;;;;;5013971;28;20030;-77
2021/08/25 02:32:53;;;;;;;34.63;22.38;;;13.90;99.90;;;;;;5011960;28;20100;-76
2021/08/25 02:35:19;;;;;;;30.98;23.67;;;13.90;99.90;;;;;;5013132;28;20532;-76
2021/08/25 02:37:45;;;;;;;32.97;22.00;;;13.90;99.90;;;;;;5013738;28;20044;-76
2021/08/25 02:40:11;;;;;;;28.42;21.48;;;13.80;99.90;;;;;;5013219;28;20104;-77
2021/08/25 02:42:36;;;;;;;31.33;23.02;;;13.80;99.90;;;;;;5013714;28;20093;-76
2021/08/25 02:45:04;;;;;;;32.50;23.75;;;13.80;99.90;;;;;;5013692;28;20072;-77
2021/08/25 02:47:29;;;;;;;32.33;23.33;;;13.80;99.90;;;;;;5012904;28;20050;-77
2021/08/25 02:49:55;;;;;;;26.98;22.05;;;13.70;99.90;;;;;;5013520;28;20026;-76
2021/08/25 02:52:21;;;;;;;26.85;22.58;;;13.80;99.90;;;;;;5014856;28;20022;-76
2021/08/25 02:54:46;;;;;;;28.88;22.60;;;13.70;99.90;;;;;;5013264;28;20394;-77
2021/08/25 02:57:12;;;;;;;33.92;23.35;;;13.70;99.90;;;;;;5014683;28;20022;-76
2021/08/25 02:59:37;;;;;;;29.77;23.38;;;13.70;99.90;;;;;;5013915;28;20100;-75
2021/08/25 03:02:03;;;;;;;33.30;22.88;;;13.80;99.90;;;;;;5013358;28;20091;-77
2021/08/25 03:04:29;;;;;;;28.33;22.05;;;13.70;99.90;;;;;;5013715;28;20383;-76
2021/08/25 03:06:54;;;;;;;34.33;23.77;;;13.70;99.90;;;;;;5013489;28;20121;-76
2021/08/25 03:09:20;;;;;;;32.65;23.55;;;13.60;99.90;;;;;;5012581;28;20030;-77
2021/08/25 03:11:46;;;;;;;30.05;24.13;;;13.60;99.90;;;;;;5013342;28;20428;-77
2021/08/25 03:14:11;;;;;;;36.35;25.30;;;13.60;99.90;;;;;;5013252;28;20100;-75
2021/08/25 03:16:37;;;;;;;35.60;25.83;;;13.60;99.90;;;;;;5012429;28;20029;-77
2021/08/25 03:19:02;;;;;;;36.63;26.35;;;13.60;99.90;;;;;;5013107;28;20021;-76
2021/08/25 03:21:28;;;;;;;33.97;24.67;;;13.60;99.90;;;;;;5012979;28;20084;-75
2021/08/25 03:23:56;;;;;;;35.25;26.83;;;13.60;99.90;;;;;;5012416;28;20055;-76
2021/08/25 03:26:22;;;;;;;35.95;26.33;;;13.50;99.90;;;;;;5012913;28;20489;-77
2021/08/25 03:28:47;;;;;;;31.02;23.23;;;13.50;99.90;;;;;;5013058;28;20144;-76
2021/08/25 03:31:13;;;;;;;37.70;27.60;;;13.50;99.90;;;;;;5012312;28;20018;-76
2021/08/25 03:33:39;;;;;;;35.20;25.58;;;13.50;99.90;;;;;;5012686;28;20018;-76
2021/08/25 03:36:04;;;;;;;36.13;25.75;;;13.50;99.90;;;;;;5012930;28;20033;-77
2021/08/25 03:38:30;;;;;;;35.00;26.42;;;13.50;99.90;;;;;;5011855;28;20124;-77
2021/08/25 03:40:55;;;;;;;33.05;25.80;;;13.50;99.90;;;;;;5013103;28;20541;-76
2021/08/25 03:43:21;;;;;;;42.30;25.83;;;13.40;99.90;;;;;;5012015;28;20037;-76
2021/08/25 03:45:47;;;;;;;36.72;26.70;;;13.40;99.90;;;;;;5012319;28;20068;-77
2021/08/25 03:48:12;;;;;;;39.20;27.13;;;13.50;99.90;;;;;;5012815;28;20046;-75
2021/08/25 03:50:38;;;;;;;41.90;27.85;;;13.40;99.90;;;;;;5011664;28;20409;-77
2021/08/25 03:53:04;;;;;;;38.33;26.25;;;13.40;99.90;;;;;;5012694;28;20076;-76
2021/08/25 03:55:29;;;;;;;41.78;27.65;;;13.30;99.90;;;;;;5012239;28;20022;-77
2021/08/25 03:57:55;;;;;;;39.90;27.58;;;13.30;99.90;;;;;;5012049;28;20378;-77
2021/08/25 04:00:20;;;;;;;40.05;26.70;;;13.30;99.90;;;;;;5012692;28;20032;-77
2021/08/25 04:02:46;;;;;;;41.25;25.50;;;13.30;99.90;;;;;;5012260;28;20439;-76
2021/08/25 04:05:11;;;;;;;39.30;25.58;;;13.30;99.90;;;;;;5011940;28;20065;-76
2021/08/25 04:07:37;;;;;;;29.98;22.52;;;13.30;99.90;;;;;;5012139;28;20124;-76
2021/08/25 04:10:03;;;;;;;48.45;24.40;;;13.30;99.90;;;;;;5012753;28;20527;-77
2021/08/25 04:12:29;;;;;;;72.07;27.80;;;12.70;99.90;;;;;;5011241;28;20462;-77
2021/08/25 04:14:54;;;;;;;60.65;25.88;;;13.30;99.90;;;;;;5012580;28;20033;-77
2021/08/25 04:17:20;;;;;;;39.08;25.40;;;13.30;99.90;;;;;;5012257;28;20124;-76
2021/08/25 04:19:45;;;;;;;57.10;24.60;;;13.30;99.90;;;;;;5011382;28;20022;-76
2021/08/25 04:22:13;;;;;;;36.55;24.17;;;13.30;99.90;;;;;;5012330;28;20102;-77
2021/08/25 04:24:39;;;;;;;81.57;26.15;;;12.90;99.90;;;;;;5011561;28;20021;-76
2021/08/25 04:27:05;;;;;;;64.18;23.75;;;13.30;99.90;;;;;;5011644;28;20045;-76
2021/08/25 04:29:30;;;;;;;53.22;24.73;;;13.30;99.90;;;;;;5011637;28;20026;-76
2021/08/25 04:31:56;;;;;;;69.82;22.80;;;13.30;99.90;;;;;;5012281;28;20036;-76
2021/08/25 04:34:21;;;;;;;114.38;25.40;;;13.30;99.90;;;;;;5011851;28;20026;-77
2021/08/25 04:36:47;;;;;;;91.93;25.30;;;13.30;99.90;;;;;;5011693;28;20121;-75
2021/08/25 04:39:12;;;;;;;33.72;23.00;;;13.20;99.90;;;;;;5011736;28;20041;-76
2021/08/25 04:41:38;;;;;;;43.90;22.70;;;13.30;99.90;;;;;;5010940;28;20045;-78
2021/08/25 04:44:07;;;;;;;72.65;24.33;;;13.30;99.90;;;;;;5010827;28;20092;-76
2021/08/25 04:46:32;;;;;;;77.45;22.25;;;13.20;99.90;;;;;;5008228;28;20092;-77
2021/08/25 04:48:58;;;;;;;125.63;23.60;;;13.20;99.90;;;;;;5001209;28;20030;-77
2021/08/25 04:51:24;;;;;;;130.32;23.30;;;13.20;99.90;;;;;;4994719;28;20109;-77
2021/08/25 04:53:52;;;;;;;134.85;22.95;;;13.30;99.90;;;;;;4993351;28;20076;-76
2021/08/25 04:56:17;;;;;;;104.85;20.85;;;13.20;99.90;;;;;;4993528;28;20073;-74
2021/08/25 04:58:43;;;;;;;89.90;23.55;;;13.20;99.90;;;;;;4998919;28;20026;-77
2021/08/25 05:01:08;;;;;;;82.07;23.23;;;13.20;99.90;;;;;;5001032;28;20066;-75
2021/08/25 05:03:35;;;;;;;33.90;22.13;;;13.20;99.90;;;;;;5001346;28;20050;-76
2021/08/25 05:06:08;;;;;;;47.22;22.55;;;13.20;99.90;;;;;;5003301;28;20045;-77
2021/08/25 05:08:34;;;;;;;29.15;22.13;;;13.20;99.90;;;;;;5015004;28;20049;-77
2021/08/25 05:10:59;;;;;;;51.20;22.42;;;13.20;99.90;;;;;;5015501;28;20014;-76
2021/08/25 05:13:25;;;;;;;25.92;21.27;;;13.20;99.90;;;;;;5015797;28;20048;-78
2021/08/25 05:15:50;;;;;;;26.83;21.77;;;13.20;99.90;;;;;;5015546;28;20025;-76
2021/08/25 05:18:16;;;;;;;31.23;21.30;;;13.30;99.90;;;;;;5014356;28;20029;-76
2021/08/25 05:20:41;;;;;;;32.10;20.90;;;13.30;99.90;;;;;;5015188;28;20037;-76
2021/08/25 05:23:07;;;;;;;33.00;21.52;;;13.30;99.90;;;;;;5015698;28;20036;-77
2021/08/25 05:25:32;;;;;;;24.92;21.20;;;13.30;99.90;;;;;;5016289;28;20030;-77
2021/08/25 05:27:58;;;;;;;31.15;21.13;;;13.40;99.90;;;;;;5015483;28;20117;-76
2021/08/25 05:30:24;;;;;;;27.02;20.45;;;13.40;99.90;;;;;;5014957;28;20104;-76
2021/08/25 05:32:52;;;;;;;33.70;21.77;;;13.40;99.90;;;;;;5015009;28;20180;-77
2021/08/25 05:35:19;;;;;;;27.88;21.65;;;13.50;99.90;;;;;;5015053;28;20022;-74
2021/08/25 05:37:46;;;;;;;31.42;19.88;;;13.50;99.90;;;;;;5015079;28;20048;-78
2021/08/25 05:40:13;;;;;;;67.75;20.98;;;13.50;99.90;;;;;;5015750;28;20022;-77
2021/08/25 05:42:38;;;;;;;29.98;19.45;;;13.60;99.90;;;;;;5014986;28;20083;-79
2021/08/25 05:45:04;;;;;;;25.55;20.92;;;13.60;99.90;;;;;;5014506;28;20026;-77
2021/08/25 05:47:30;;;;;;;31.42;21.83;;;13.70;99.90;;;;;;5014855;28;20057;-70
2021/08/25 05:49:55;;;;;;;28.45;21.70;;;13.70;99.90;;;;;;5011901;28;20036;-70
2021/08/25 05:52:21;;;;;;;35.92;22.52;;;13.70;99.90;;;;;;5006853;28;20037;-76
2021/08/25 05:54:47;;;;;;;86.93;22.08;;;13.70;99.90;;;;;;5012911;28;20030;-77
2021/08/25 05:57:12;;;;;;;78.43;20.33;;;13.80;99.90;;;;;;5012161;28;20026;-77
2021/08/25 05:59:38;;;;;;;61.03;20.25;;;13.80;99.90;;;;;;5013543;28;20019;-77
2021/08/25 06:02:03;;;;;;;105.57;21.45;;;13.80;99.90;;;;;;5012961;28;20030;-78
2021/08/25 06:04:29;;;;;;;46.92;19.10;;;13.80;99.90;;;;;;5012179;28;20026;-77
2021/08/25 06:06:54;;;;;;;58.65;21.45;;;13.80;99.90;;;;;;5013444;28;20026;-77
2021/08/25 06:09:20;;;;;;;46.78;20.00;;;13.80;99.90;;;;;;5014235;28;20029;-77
2021/08/25 06:11:46;;;;;;;71.90;18.25;;;13.90;99.90;;;;;;5012313;28;20036;-78
2021/08/25 06:14:11;;;;;;;52.47;18.08;;;13.90;99.90;;;;;;5014724;28;20017;-77
2021/08/25 06:16:38;;;;;;;26.75;17.52;;;14.00;99.90;;;;;;5014154;28;20026;-79
2021/08/25 06:19:04;;;;;;;27.10;18.70;;;14.00;99.90;;;;;;5013532;28;20451;-76
2021/08/25 06:21:29;;;;;;;36.15;18.40;;;14.10;99.90;;;;;;5014120;28;20116;-78
2021/08/25 06:23:55;;;;;;;23.83;19.95;;;14.20;99.90;;;;;;5014270;28;20108;-77
2021/08/25 06:26:21;;;;;;;25.20;20.05;;;14.30;99.90;;;;;;5013700;28;20084;-77
2021/08/25 06:28:46;;;;;;;23.85;20.77;;;14.40;99.90;;;;;;5014240;28;20180;-77
2021/08/25 06:31:12;;;;;;;25.45;21.33;;;14.40;99.90;;;;;;5014357;28;20052;-77
2021/08/25 06:33:38;;;;;;;23.88;21.08;;;14.50;99.90;;;;;;5013200;28;20022;-77
2021/08/25 06:36:04;;;;;;;24.55;21.23;;;14.50;99.90;;;;;;5014192;28;20109;-77
2021/08/25 06:38:29;;;;;;;26.15;20.98;;;14.60;99.90;;;;;;5013868;28;20237;-77
2021/08/25 06:40:55;;;;;;;24.02;21.05;;;14.60;99.90;;;;;;5013462;28;20083;-77
2021/08/25 06:43:20;;;;;;;26.25;22.42;;;14.60;99.90;;;;;;5013948;28;20028;-78
2021/08/25 06:45:46;;;;;;;25.35;22.30;;;14.70;99.90;;;;;;5014134;28;20441;-77
2021/08/25 06:48:11;;;;;;;26.77;23.13;;;14.70;99.90;;;;;;5012918;28;20037;-77
2021/08/25 06:50:37;;;;;;;26.83;22.42;;;15.20;99.90;;;;;;5013565;28;20100;-78
2021/08/25 06:53:02;;;;;;;24.90;22.23;;;14.90;99.90;;;;;;5014084;28;20026;-78
2021/08/25 06:55:28;;;;;;;25.40;21.08;;;15.00;99.90;;;;;;5012680;28;20026;-78
2021/08/25 06:57:54;;;;;;;27.05;21.75;;;15.10;99.90;;;;;;5014351;28;20028;-77
2021/08/25 07:00:19;;;;;;;25.00;22.30;;;15.10;99.90;;;;;;5012930;28;20029;-78
2021/08/25 07:02:45;;;;;;;27.58;22.02;;;15.20;99.90;;;;;;5013185;28;20394;-77
2021/08/25 07:05:10;;;;;;;29.23;22.52;;;15.20;99.90;;;;;;5013919;28;20026;-77
2021/08/25 07:07:36;;;;;;;24.00;21.45;;;15.20;99.90;;;;;;5013119;28;20040;-77
2021/08/25 07:10:03;;;;;;;28.88;22.17;;;15.20;99.90;;;;;;5013749;28;20030;-77
2021/08/25 07:12:29;;;;;;;23.83;21.42;;;15.30;99.90;;;;;;5013399;28;20121;-77
2021/08/25 07:14:57;;;;;;;23.50;20.90;;;15.40;99.90;;;;;;5013036;28;20054;-76
2021/08/25 07:17:23;;;;;;;24.95;20.80;;;15.40;99.90;;;;;;5013186;28;20034;-78
2021/08/25 07:19:48;;;;;;;24.20;19.55;;;15.50;99.90;;;;;;5013072;28;20026;-76
2021/08/25 07:22:14;;;;;;;21.15;18.65;;;15.60;99.90;;;;;;5011777;28;20466;-78
2021/08/25 07:24:39;;;;;;;15.88;14.27;;;15.70;99.90;;;;;;5013013;28;20243;-77
2021/08/25 07:27:05;;;;;;;16.35;14.45;;;15.80;99.90;;;;;;5013229;28;20022;-78
2021/08/25 07:29:31;;;;;;;18.25;15.50;;;15.80;99.90;;;;;;5011955;28;20378;-78
2021/08/25 07:31:57;;;;;;;15.77;14.02;;;15.90;99.90;;;;;;5013106;28;20061;-78
2021/08/25 07:34:23;;;;;;;16.80;14.98;;;16.00;99.90;;;;;;5013245;28;20057;-76
2021/08/25 07:36:48;;;;;;;15.40;13.82;;;16.10;99.90;;;;;;5012561;28;20045;-77
2021/08/25 07:39:14;;;;;;;15.65;14.07;;;16.20;99.90;;;;;;5013165;28;20032;-79
2021/08/25 07:41:39;;;;;;;16.98;14.20;;;16.30;99.90;;;;;;5012711;28;20038;-77
2021/08/25 07:44:07;;;;;;;17.20;13.77;;;16.40;99.90;;;;;;5013102;28;20072;-77
2021/08/25 07:46:32;;;;;;;14.52;13.02;;;16.40;99.90;;;;;;5012551;28;20033;-76
2021/08/25 07:49:02;;;;;;;15.88;12.50;;;16.50;99.90;;;;;;5013313;28;20030;-78
2021/08/25 07:51:29;;;;;;;14.75;13.07;;;16.60;99.90;;;;;;5010622;28;20371;-78
2021/08/25 07:53:57;;;;;;;15.98;14.27;;;16.60;99.90;;;;;;5013167;28;20036;-79
2021/08/25 07:56:22;;;;;;;16.70;11.80;;;16.70;99.90;;;;;;5012047;28;20474;-78
2021/08/25 07:58:48;;;;;;;16.95;13.02;;;16.70;99.90;;;;;;5010970;28;20029;-79
2021/08/25 08:01:14;;;;;;;15.45;11.75;;;16.80;99.90;;;;;;5011768;28;20025;-77
2021/08/25 08:03:40;;;;;;;18.25;14.57;;;17.00;99.90;;;;;;5011043;28;20504;-79
2021/08/25 08:06:05;;;;;;;13.95;12.55;;;16.90;99.90;;;;;;5012025;28;20014;-79
2021/08/25 08:08:31;;;;;;;19.30;16.38;;;17.00;99.90;;;;;;5012102;28;20113;-77
2021/08/25 08:10:57;;;;;;;20.48;15.82;;;17.00;99.90;;;;;;5011487;28;20072;-77
2021/08/25 08:13:22;;;;;;;17.27;14.23;;;17.10;99.90;;;;;;5012718;28;20022;-78
2021/08/25 08:15:48;;;;;;;15.60;14.00;;;17.10;99.90;;;;;;5011957;28;20427;-77
2021/08/25 08:18:20;;;;;;;13.73;12.02;;;17.20;99.90;;;;;;5011772;28;20060;-78
2021/08/25 08:20:46;;;;;;;13.30;11.85;;;17.30;99.90;;;;;;5012639;28;20054;-79
2021/08/25 08:23:12;;;;;;;11.38;10.18;;;17.30;99.90;;;;;;5012621;28;20041;-79
2021/08/25 08:25:38;;;;;;;10.40;8.75;;;17.30;99.90;;;;;;5011905;28;20057;-79
2021/08/25 08:28:03;;;;;;;11.80;10.68;;;17.30;99.90;;;;;;5012408;28;20505;-78
2021/08/25 08:30:31;;;;;;;12.85;11.18;;;17.40;99.90;;;;;;5012240;28;20030;-78
2021/08/25 08:32:56;;;;;;;16.05;11.63;;;17.40;99.90;;;;;;5013910;28;20022;-79
2021/08/25 08:35:22;;;;;;;16.10;11.25;;;17.40;99.90;;;;;;5021239;28;20493;-82
2021/08/25 08:37:48;;;;;;;12.00;10.18;;;17.50;99.90;;;;;;5021451;28;20030;-79
2021/08/25 08:40:14;;;;;;;13.02;11.63;;;17.60;99.90;;;;;;5020745;28;20026;-79
2021/08/25 08:42:40;;;;;;;14.48;10.95;;;17.70;99.90;;;;;;5019476;28;20052;-82
2021/08/25 08:45:07;;;;;;;20.00;12.68;;;17.80;99.90;;;;;;5019021;28;20457;-80
2021/08/25 08:47:33;;;;;;;14.20;12.52;;;17.90;99.90;;;;;;5018450;28;20052;-77
2021/08/25 08:50:00;;;;;;;16.95;12.65;;;18.00;99.90;;;;;;5018161;28;20057;-78
2021/08/25 08:52:27;;;;;;;13.35;12.02;;;18.00;99.90;;;;;;5006452;28;20037;-77
2021/08/25 08:54:54;;;;;;;16.95;11.80;;;18.10;99.90;;;;;;5017895;28;20056;-79
2021/08/25 08:57:20;;;;;;;11.38;10.27;;;18.10;99.90;;;;;;5018128;28;20033;-79
2021/08/25 08:59:47;;;;;;;13.07;10.57;;;18.10;99.90;;;;;;5015644;28;20029;-76
2021/08/25 09:02:33;;;;;;;12.48;11.18;;;18.10;99.90;;;;;;5015933;28;20034;-77
2021/08/25 09:04:59;;;;;;;12.25;10.13;;;18.00;99.90;;;;;;5016415;28;20096;-78
2021/08/25 09:07:26;;;;;;;12.35;10.98;;;18.20;99.90;;;;;;5014646;28;20108;-80
2021/08/25 09:09:58;;;;;;;16.40;11.52;;;18.20;99.90;;;;;;5014047;28;20117;-77
2021/08/25 09:12:24;;;;;;;15.75;11.35;;;18.40;99.90;;;;;;5015183;28;20045;-76
2021/08/25 09:14:50;;;;;;;16.65;13.40;;;18.50;99.90;;;;;;5015359;28;20022;-79
2021/08/25 09:17:31;;;;;;;14.52;12.27;;;18.70;99.90;;;;;;5015872;28;20022;-77
2021/08/25 09:20:09;;;;;;;15.80;12.43;;;18.80;99.90;;;;;;5015845;28;20026;-82
2021/08/25 09:22:36;;;;;;;16.05;11.88;;;18.90;99.90;;;;;;5015223;28;20038;-80
2021/08/25 09:25:03;;;;;;;16.23;12.45;;;19.10;99.90;;;;;;5016354;28;20026;-78
2021/08/25 09:27:29;;;;;;;13.63;11.18;;;19.20;99.90;;;;;;5016154;28;20072;-79
2021/08/25 09:29:57;;;;;;;14.48;11.75;;;19.30;99.90;;;;;;5015830;28;20026;-79
2021/08/25 09:32:28;;;;;;;12.70;11.38;;;19.30;99.90;;;;;;5015626;28;20029;-80
2021/08/25 09:34:55;;;;;;;15.02;12.90;;;19.20;99.90;;;;;;5014724;28;20560;-79
2021/08/25 09:37:22;;;;;;;15.05;12.07;;;19.20;99.90;;;;;;5015546;28;20025;-77
2021/08/25 09:39:49;;;;;;;13.73;11.98;;;19.10;99.90;;;;;;5014683;28;20482;-80
2021/08/25 09:42:17;;;;;;;11.23;9.05;;;19.00;99.90;;;;;;5014644;28;20104;-79
2021/08/25 09:44:45;;;;;;;7.32;6.63;;;18.90;99.90;;;;;;5014717;28;20056;-78
2021/08/25 09:47:10;;;;;;;14.70;8.80;;;18.90;99.90;;;;;;5014970;28;20058;-78
2021/08/25 09:49:36;;;;;;;9.23;8.23;;;18.90;99.90;;;;;;5014859;28;20026;-78
2021/08/25 09:52:03;;;;;;;8.18;6.93;;;19.00;99.90;;;;;;5015263;28;20058;-78
2021/08/25 09:54:28;;;;;;;10.15;8.93;;;19.20;99.90;;;;;;5014527;28;20056;-78
2021/08/25 09:56:54;;;;;;;11.55;8.55;;;19.30;99.90;;;;;;5014185;28;20409;-77
2021/08/25 09:59:22;;;;;;;12.13;9.77;;;19.50;99.90;;;;;;5014673;28;20025;-78
2021/08/25 10:01:49;;;;;;;11.15;9.82;;;19.60;99.90;;;;;;5014360;28;20046;-78
2021/08/25 10:04:16;;;;;;;11.10;9.40;;;19.70;99.90;;;;;;5014089;28;20026;-78
2021/08/25 10:06:47;;;;;;;16.83;9.48;;;19.90;99.90;;;;;;5014552;28;20026;-77
2021/08/25 10:09:15;;;;;;;11.50;10.30;;;20.10;99.90;;;;;;5014753;28;20049;-77
2021/08/25 10:12:01;;;;;;;14.18;10.55;;;20.30;99.90;;;;;;5013757;28;20026;-78
2021/08/25 10:14:30;;;;;;;10.93;9.82;;;20.40;99.90;;;;;;5013503;28;20022;-78
2021/08/25 10:16:56;;;;;;;9.13;8.30;;;20.30;99.90;;;;;;5014814;28;20073;-77
2021/08/25 10:19:54;;;;;;;15.13;8.40;;;20.10;99.90;;;;;;5014161;28;20411;-76
2021/08/25 10:22:19;;;;;;;12.73;9.82;;;20.00;99.90;;;;;;5002373;28;20034;-77
2021/08/25 10:24:54;;;;;;;8.95;8.10;;;20.00;99.90;;;;;;5013515;28;20539;-78
2021/08/25 10:27:24;;;;;;;11.10;9.23;;;20.00;99.90;;;;;;5013690;28;20538;-77
2021/08/25 10:30:07;;;;;;;10.10;9.02;;;20.00;99.90;;;;;;5013260;28;20529;-79
2021/08/25 10:32:59;;;;;;;14.20;9.73;;;20.00;99.90;;;;;;5013026;28;20034;-77
2021/08/25 10:35:32;;;;;;;9.65;8.63;;;20.20;99.90;;;;;;5014033;28;20013;-77
2021/08/25 10:38:27;;;;;;;9.38;8.18;;;20.40;99.90;;;;;;5014179;28;20378;-77
2021/08/25 10:41:00;;;;;;;9.88;8.40;;;20.30;99.90;;;;;;5014144;28;20489;-78
2021/08/25 10:43:43;;;;;;;10.75;8.80;;;20.10;99.90;;;;;;5013890;28;20037;-77
2021/08/25 10:46:12;;;;;;;8.63;7.75;;;20.10;99.90;;;;;;5013716;28;20109;-77
2021/08/25 10:48:41;;;;;;;9.13;6.07;;;20.20;99.90;;;;;;5013509;28;20041;-78
2021/08/25 10:51:25;;;;;;;7.03;6.28;;;20.30;99.90;;;;;;5014047;28;20105;-76
2021/08/25 10:53:51;;;;;;;9.80;8.57;;;20.50;99.90;;;;;;5012665;28;20022;-77
2021/08/25 10:56:28;;;;;;;13.32;8.30;;;20.80;99.90;;;;;;5012833;28;20064;-77
2021/08/25 10:58:56;;;;;;;11.18;9.63;;;21.10;99.90;;;;;;5013699;28;20367;-77
2021/08/25 11:01:25;;;;;;;12.05;8.85;;;21.00;99.90;;;;;;5012773;28;20049;-76
2021/08/25 11:03:52;;;;;;;10.10;8.73;;;20.90;99.90;;;;;;5013295;28;20121;-78
2021/08/25 11:06:44;;;;;;;10.20;9.18;;;20.70;99.90;;;;;;5013607;28;20056;-76
2021/08/25 11:09:18;;;;;;;12.30;7.72;;;20.50;99.90;;;;;;5013428;28;20033;-77
2021/08/25 11:11:52;;;;;;;11.68;8.40;;;20.50;99.90;;;;;;5013485;28;20183;-76
2021/08/25 11:14:26;;;;;;;9.98;8.40;;;20.50;99.90;;;;;;5012749;28;20026;-77
2021/08/25 11:16:54;;;;;;;8.32;7.32;;;20.60;99.90;;;;;;5013404;28;20022;-77
2021/08/25 11:19:21;;;;;;;7.78;6.97;;;20.80;99.90;;;;;;5013221;28;20055;-77
2021/08/25 11:21:47;;;;;;;8.73;7.28;;;20.90;99.90;;;;;;5012437;28;20038;-77
2021/08/25 11:24:13;;;;;;;7.85;7.15;;;21.10;99.90;;;;;;5013388;28;20109;-78
2021/08/25 11:26:40;;;;;;;8.48;7.65;;;21.30;99.90;;;;;;5013152;28;20050;-80
2021/08/25 11:29:18;;;;;;;6.53;5.88;;;21.40;99.90;;;;;;5012815;28;20026;-79
2021/08/25 11:31:44;;;;;;;6.63;5.93;;;21.30;99.90;;;;;;5000855;28;20113;-77
2021/08/25 11:34:14;;;;;;;11.77;7.65;;;21.40;99.90;;;;;;5013300;28;20034;-77
2021/08/25 11:36:57;;;;;;;8.52;7.68;;;21.50;99.90;;;;;;5011912;28;20022;-78
2021/08/25 11:39:24;;;;;;;15.38;9.05;;;22.00;99.90;;;;;;5013156;28;20053;-77
2021/08/25 11:41:50;;;;;;;10.35;9.32;;;21.60;99.90;;;;;;5011824;28;20041;-78
2021/08/25 11:44:42;;;;;;;9.70;7.85;;;21.30;99.90;;;;;;5012962;28;20129;-69
2021/08/25 11:47:12;;;;;;;9.30;6.93;;;21.00;99.90;;;;;;5012507;28;20486;-80
2021/08/25 11:49:40;;;;;;;9.57;7.07;;;21.00;99.90;;;;;;5011934;28;20141;-77
2021/08/25 11:52:07;;;;;;;14.70;7.10;;;21.10;99.90;;;;;;5012831;28;20414;-80
2021/08/25 11:54:33;;;;;;;6.38;5.32;;;21.20;99.90;;;;;;5012248;28;20049;-80
2021/08/25 11:56:59;;;;;;;7.85;6.45;;;21.00;99.90;;;;;;5011769;28;20058;-81
2021/08/25 11:59:25;;;;;;;9.52;6.30;;;21.20;99.90;;;;;;5013052;28;20046;-81
2021/08/25 12:02:06;;;;;;;6.03;5.53;;;21.20;99.90;;;;;;5012704;28;20042;-81
2021/08/25 12:04:32;;;;;;;7.30;6.53;;;21.30;99.90;;;;;;5012050;28;20093;-79
2021/08/25 12:06:58;;;;;;;9.02;6.28;;;22.30;99.90;;;;;;5020984;28;20026;-81
2021/08/25 12:09:31;;;;;;;8.85;7.95;;;21.80;99.90;;;;;;5019178;28;20026;-80
2021/08/25 12:11:57;;;;;;;8.57;7.88;;;22.10;99.90;;;;;;5012836;28;20057;-83
2021/08/25 12:14:23;;;;;;;11.73;8.02;;;22.10;99.90;;;;;;5014722;28;20426;-80
2021/08/25 12:17:05;;;;;;;9.07;8.18;;;22.10;99.90;;;;;;5019850;28;20117;-81
2021/08/25 12:19:34;;;;;;;7.70;6.03;;;22.10;99.90;;;;;;5012665;28;20053;-80
2021/08/25 12:22:27;;;;;;;6.60;5.80;;;22.10;99.90;;;;;;5013355;28;20048;-80
2021/08/25 12:24:54;;;;;;;6.88;6.20;;;22.00;99.90;;;;;;5011267;28;20097;-80
2021/08/25 12:27:20;;;;;;;6.88;6.18;;;21.90;99.90;;;;;;5011897;28;20109;-80
2021/08/25 12:29:45;;;;;;;6.70;6.05;;;22.00;99.90;;;;;;5014501;28;20025;-80
2021/08/25 12:32:14;;;;;;;7.03;5.97;;;22.20;99.90;;;;;;5010386;28;20052;-81
2021/08/25 12:35:00;;;;;;;7.85;7.00;;;22.10;99.90;;;;;;5011540;28;20022;-80